sensor_id;sensor_type;location;lat;lon;timestamp;temperature;humidity
7796;DHT22;3942;51.518;6.912;2022-07-21T00:03:20;24.10;99.90
7796;DHT22;3942;51.518;6.912;2022-07-21T00:08:23;23.60;99.90
7796;DHT22;3942;51.518;6.912;2022-07-21T00:13:25;23.80;99.90
7796;DHT22;3942;51.518;6.912;2022-07-21T00:18:28;23.80;99.90
7796;DHT22;3942;51.518;6.912;2022-07-21T00:23:31;23.00;99.90
7796;DHT22;3942;51.518;6.912;2022-07-21T00:28:33;23.20;99.90
7796;DHT22;3942;51.518;6.912;2022-07-21T00:33:35;22.90;99.90
7796;DHT22;3942;51.518;6.912;2022-07-21T00:38:38;22.80;99.90
7796;DHT22;3942;51.518;6.912;2022-07-21T00:43:40;22.60;99.90
7796;DHT22;3942;51.518;6.912;2022-07-21T00:48:42;23.00;99.90
7796;DHT22;3942;51.518;6.912;2022-07-21T00:53:46;23.30;99.90
7796;DHT22;3942;51.518;6.912;2022-07-21T00:58:48;23.00;99.90
7796;DHT22;3942;51.518;6.912;2022-07-21T01:03:50;23.30;99.90
7796;DHT22;3942;51.518;6.912;2022-07-21T01:08:54;23.00;99.90
7796;DHT22;3942;51.518;6.912;2022-07-21T01:13:56;23.10;99.90
7796;DHT22;3942;51.518;6.912;2022-07-21T01:29:04;22.30;99.90
7796;DHT22;3942;51.518;6.912;2022-07-21T02:04:40;22.20;99.90
7796;DHT22;3942;51.518;6.912;2022-07-21T02:09:43;22.20;99.90
7796;DHT22;3942;51.518;6.912;2022-07-21T02:14:45;21.60;99.90
7796;DHT22;3942;51.518;6.912;2022-07-21T02:19:47;21.70;99.90
7796;DHT22;3942;51.518;6.912;2022-07-21T02:24:51;21.40;99.90
7796;DHT22;3942;51.518;6.912;2022-07-21T02:29:53;21.40;99.90
7796;DHT22;3942;51.518;6.912;2022-07-21T02:39:58;20.90;99.90
7796;DHT22;3942;51.518;6.912;2022-07-21T02:45:00;21.20;99.90
7796;DHT22;3942;51.518;6.912;2022-07-21T02:55:06;20.80;99.90
7796;DHT22;3942;51.518;6.912;2022-07-21T03:05:12;21.10;99.90
7796;DHT22;3942;51.518;6.912;2022-07-21T03:10:15;20.70;99.90
7796;DHT22;3942;51.518;6.912;2022-07-21T03:15:17;21.20;99.90
7796;DHT22;3942;51.518;6.912;2022-07-21T03:20:19;20.60;99.90
7796;DHT22;3942;51.518;6.912;2022-07-21T03:25:25;20.80;99.90
7796;DHT22;3942;51.518;6.912;2022-07-21T03:30:27;20.70;99.90
7796;DHT22;3942;51.518;6.912;2022-07-21T03:35:29;20.60;99.90
7796;DHT22;3942;51.518;6.912;2022-07-21T03:40:34;20.90;99.90
7796;DHT22;3942;51.518;6.912;2022-07-21T03:50:40;20.90;99.90
7796;DHT22;3942;51.518;6.912;2022-07-21T04:00:47;20.60;99.90
7796;DHT22;3942;51.518;6.912;2022-07-21T04:05:49;21.00;99.90
7796;DHT22;3942;51.518;6.912;2022-07-21T04:10:53;20.50;99.90
7796;DHT22;3942;51.518;6.912;2022-07-21T04:15:54;20.80;99.90
7796;DHT22;3942;51.518;6.912;2022-07-21T04:31:02;21.50;99.90
7796;DHT22;3942;51.518;6.912;2022-07-21T04:36:04;21.20;99.90
7796;DHT22;3942;51.518;6.912;2022-07-21T04:46:10;21.20;99.90
7796;DHT22;3942;51.518;6.912;2022-07-21T04:51:11;21.20;99.90
7796;DHT22;3942;51.518;6.912;2022-07-21T04:56:15;21.10;99.90
7796;DHT22;3942;51.518;6.912;2022-07-21T05:11:23;21.40;99.90
7796;DHT22;3942;51.518;6.912;2022-07-21T05:16:24;21.60;99.90
7796;DHT22;3942;51.518;6.912;2022-07-21T05:51:42;21.60;99.90
7796;DHT22;3942;51.518;6.912;2022-07-21T06:06:50;21.10;99.90
7796;DHT22;3942;51.518;6.912;2022-07-21T06:11:54;21.70;99.90
7796;DHT22;3942;51.518;6.912;2022-07-21T06:32:04;21.70;99.90
7796;DHT22;3942;51.518;6.912;2022-07-21T06:37:06;21.80;99.90
7796;DHT22;3942;51.518;6.912;2022-07-21T06:42:09;21.90;99.90
7796;DHT22;3942;51.518;6.912;2022-07-21T06:52:14;21.60;99.90
7796;DHT22;3942;51.518;6.912;2022-07-21T06:57:17;21.60;99.90
7796;DHT22;3942;51.518;6.912;2022-07-21T07:02:19;21.30;99.90
7796;DHT22;3942;51.518;6.912;2022-07-21T07:17:26;21.80;99.90
7796;DHT22;3942;51.518;6.912;2022-07-21T07:22:28;22.10;99.90
7796;DHT22;3942;51.518;6.912;2022-07-21T07:32:34;22.10;99.90
7796;DHT22;3942;51.518;6.912;2022-07-21T07:37:36;22.20;99.90
7796;DHT22;3942;51.518;6.912;2022-07-21T07:42:40;22.10;99.90
7796;DHT22;3942;51.518;6.912;2022-07-21T07:47:42;22.40;99.90
7796;DHT22;3942;51.518;6.912;2022-07-21T08:02:50;22.60;99.90
7796;DHT22;3942;51.518;6.912;2022-07-21T08:07:52;22.60;99.90
7796;DHT22;3942;51.518;6.912;2022-07-21T08:28:04;23.10;99.90
7796;DHT22;3942;51.518;6.912;2022-07-21T08:38:09;23.20;99.90
7796;DHT22;3942;51.518;6.912;2022-07-21T08:48:15;23.00;99.90
7796;DHT22;3942;51.518;6.912;2022-07-21T09:08:31;23.10;99.90
7796;DHT22;3942;51.518;6.912;2022-07-21T09:33:58;24.00;99.90
7796;DHT22;3942;51.518;6.912;2022-07-21T09:49:07;23.50;99.90
7796;DHT22;3942;51.518;6.912;2022-07-21T09:59:13;23.70;99.90
7796;DHT22;3942;51.518;6.912;2022-07-21T10:04:15;23.90;99.90
7796;DHT22;3942;51.518;6.912;2022-07-21T10:09:21;24.10;99.90
7796;DHT22;3942;51.518;6.912;2022-07-21T10:19:28;23.60;99.90
7796;DHT22;3942;51.518;6.912;2022-07-21T10:24:32;24.10;99.90
7796;DHT22;3942;51.518;6.912;2022-07-21T10:30:06;23.80;99.90
7796;DHT22;3942;51.518;6.912;2022-07-21T10:35:25;23.50;99.90
7796;DHT22;3942;51.518;6.912;2022-07-21T10:40:39;23.50;99.90
7796;DHT22;3942;51.518;6.912;2022-07-21T10:50:50;23.30;99.90
7796;DHT22;3942;51.518;6.912;2022-07-21T10:55:53;23.00;99.90
7796;DHT22;3942;51.518;6.912;2022-07-21T11:00:58;23.20;99.90
7796;DHT22;3942;51.518;6.912;2022-07-21T11:06:19;22.80;99.90
7796;DHT22;3942;51.518;6.912;2022-07-21T11:11:24;22.70;99.90
7796;DHT22;3942;51.518;6.912;2022-07-21T11:16:58;22.70;99.90
7796;DHT22;3942;51.518;6.912;2022-07-21T11:22:05;22.00;99.90
7796;DHT22;3942;51.518;6.912;2022-07-21T11:27:09;22.60;99.90
7796;DHT22;3942;51.518;6.912;2022-07-21T11:32:13;22.40;99.90
7796;DHT22;3942;51.518;6.912;2022-07-21T11:52:27;22.50;99.90
7796;DHT22;3942;51.518;6.912;2022-07-21T12:02:33;22.20;99.90
7796;DHT22;3942;51.518;6.912;2022-07-21T12:07:37;22.10;99.90
7796;DHT22;3942;51.518;6.912;2022-07-21T12:12:40;22.30;99.90
7796;DHT22;3942;51.518;6.912;2022-07-21T12:17:45;22.40;99.90
7796;DHT22;3942;51.518;6.912;2022-07-21T12:22:47;22.50;99.90
7796;DHT22;3942;51.518;6.912;2022-07-21T12:27:51;22.60;99.90
7796;DHT22;3942;51.518;6.912;2022-07-21T12:33:01;22.60;99.90
7796;DHT22;3942;51.518;6.912;2022-07-21T12:43:13;22.50;99.90
7796;DHT22;3942;51.518;6.912;2022-07-21T12:48:18;22.60;99.90
7796;DHT22;3942;51.518;6.912;2022-07-21T13:03:27;22.50;99.90
7796;DHT22;3942;51.518;6.912;2022-07-21T13:08:30;22.50;99.90
7796;DHT22;3942;51.518;6.912;2022-07-21T13:23:37;22.10;99.90
7796;DHT22;3942;51.518;6.912;2022-07-21T13:28:39;21.90;99.90
7796;DHT22;3942;51.518;6.912;2022-07-21T13:33:43;22.20;99.90
7796;DHT22;3942;51.518;6.912;2022-07-21T13:43:47;22.10;99.90
7796;DHT22;3942;51.518;6.912;2022-07-21T13:48:51;22.00;99.90
7796;DHT22;3942;51.518;6.912;2022-07-21T13:53:53;22.00;99.90
7796;DHT22;3942;51.518;6.912;2022-07-21T13:58:55;22.10;99.90
7796;DHT22;3942;51.518;6.912;2022-07-21T14:09:00;22.40;99.90
7796;DHT22;3942;51.518;6.912;2022-07-21T14:14:02;22.20;99.90
7796;DHT22;3942;51.518;6.912;2022-07-21T14:19:05;22.10;99.90
7796;DHT22;3942;51.518;6.912;2022-07-21T14:29:27;21.80;99.90
7796;DHT22;3942;51.518;6.912;2022-07-21T14:34:31;21.80;99.90
7796;DHT22;3942;51.518;6.912;2022-07-21T14:39:32;21.60;99.90
7796;DHT22;3942;51.518;6.912;2022-07-21T14:44:34;21.80;99.90
7796;DHT22;3942;51.518;6.912;2022-07-21T14:49:38;22.20;99.90
7796;DHT22;3942;51.518;6.912;2022-07-21T14:54:40;21.60;99.90
7796;DHT22;3942;51.518;6.912;2022-07-21T15:04:46;21.90;99.90
7796;DHT22;3942;51.518;6.912;2022-07-21T15:09:48;21.70;99.90
7796;DHT22;3942;51.518;6.912;2022-07-21T15:14:49;22.10;99.90
7796;DHT22;3942;51.518;6.912;2022-07-21T15:19:53;21.80;99.90
7796;DHT22;3942;51.518;6.912;2022-07-21T15:40:07;21.80;99.90
7796;DHT22;3942;51.518;6.912;2022-07-21T15:45:10;21.50;99.90
7796;DHT22;3942;51.518;6.912;2022-07-21T15:50:13;21.40;99.90
7796;DHT22;3942;51.518;6.912;2022-07-21T16:00:18;21.00;99.90
7796;DHT22;3942;51.518;6.912;2022-07-21T16:05:24;21.20;99.90
7796;DHT22;3942;51.518;6.912;2022-07-21T16:10:27;21.30;99.90
7796;DHT22;3942;51.518;6.912;2022-07-21T16:15:29;21.50;99.90
7796;DHT22;3942;51.518;6.912;2022-07-21T16:20:32;21.30;99.90
7796;DHT22;3942;51.518;6.912;2022-07-21T16:30:36;21.50;99.90
7796;DHT22;3942;51.518;6.912;2022-07-21T16:35:39;21.30;99.90
7796;DHT22;3942;51.518;6.912;2022-07-21T16:40:41;21.40;99.90
7796;DHT22;3942;51.518;6.912;2022-07-21T16:45:43;21.30;99.90
7796;DHT22;3942;51.518;6.912;2022-07-21T16:50:46;21.40;99.90
7796;DHT22;3942;51.518;6.912;2022-07-21T17:00:51;21.10;99.90
7796;DHT22;3942;51.518;6.912;2022-07-21T17:05:54;20.80;99.90
7796;DHT22;3942;51.518;6.912;2022-07-21T17:10:56;20.70;99.90
7796;DHT22;3942;51.518;6.912;2022-07-21T17:15:58;20.50;99.90
7796;DHT22;3942;51.518;6.912;2022-07-21T17:31:08;20.90;99.90
7796;DHT22;3942;51.518;6.912;2022-07-21T17:41:14;20.70;99.90
7796;DHT22;3942;51.518;6.912;2022-07-21T17:51:19;20.80;99.90
7796;DHT22;3942;51.518;6.912;2022-07-21T17:56:21;20.80;99.90
7796;DHT22;3942;51.518;6.912;2022-07-21T18:01:24;20.60;99.90
7796;DHT22;3942;51.518;6.912;2022-07-21T18:06:27;20.70;99.90
7796;DHT22;3942;51.518;6.912;2022-07-21T18:21:36;20.70;99.90
7796;DHT22;3942;51.518;6.912;2022-07-21T18:26:40;20.80;99.90
7796;DHT22;3942;51.518;6.912;2022-07-21T18:31:41;20.80;99.90
7796;DHT22;3942;51.518;6.912;2022-07-21T18:36:45;20.60;99.90
7796;DHT22;3942;51.518;6.912;2022-07-21T18:46:49;20.30;99.90
7796;DHT22;3942;51.518;6.912;2022-07-21T18:51:52;20.50;99.90
7796;DHT22;3942;51.518;6.912;2022-07-21T18:56:54;20.50;99.90
7796;DHT22;3942;51.518;6.912;2022-07-21T19:07:00;20.70;99.90
7796;DHT22;3942;51.518;6.912;2022-07-21T19:12:02;20.40;99.90
7796;DHT22;3942;51.518;6.912;2022-07-21T19:17:04;19.90;99.90
7796;DHT22;3942;51.518;6.912;2022-07-21T19:22:07;20.40;99.90
7796;DHT22;3942;51.518;6.912;2022-07-21T19:32:11;20.40;99.90
7796;DHT22;3942;51.518;6.912;2022-07-21T19:37:15;20.20;99.90
7796;DHT22;3942;51.518;6.912;2022-07-21T19:47:19;20.40;99.90
7796;DHT22;3942;51.518;6.912;2022-07-21T19:52:22;20.50;99.90
7796;DHT22;3942;51.518;6.912;2022-07-21T20:02:27;20.70;99.90
7796;DHT22;3942;51.518;6.912;2022-07-21T20:07:31;20.30;99.90
7796;DHT22;3942;51.518;6.912;2022-07-21T20:12:33;20.30;99.90
7796;DHT22;3942;51.518;6.912;2022-07-21T20:22:39;20.30;99.90
7796;DHT22;3942;51.518;6.912;2022-07-21T20:27:42;20.40;99.90
7796;DHT22;3942;51.518;6.912;2022-07-21T20:32:45;20.40;99.90
7796;DHT22;3942;51.518;6.912;2022-07-21T20:37:50;20.00;99.90
7796;DHT22;3942;51.518;6.912;2022-07-21T20:58:00;20.00;99.90
7796;DHT22;3942;51.518;6.912;2022-07-21T21:03:03;19.90;99.90
7796;DHT22;3942;51.518;6.912;2022-07-21T21:08:06;19.80;99.90
7796;DHT22;3942;51.518;6.912;2022-07-21T21:23:14;19.80;99.90
7796;DHT22;3942;51.518;6.912;2022-07-21T21:28:16;19.70;99.90
7796;DHT22;3942;51.518;6.912;2022-07-21T21:33:19;19.60;99.90
7796;DHT22;3942;51.518;6.912;2022-07-21T21:43:25;20.00;99.90
7796;DHT22;3942;51.518;6.912;2022-07-21T21:48:27;19.70;99.90
7796;DHT22;3942;51.518;6.912;2022-07-21T21:53:30;19.80;99.90
7796;DHT22;3942;51.518;6.912;2022-07-21T21:58:32;20.10;99.90
7796;DHT22;3942;51.518;6.912;2022-07-21T22:03:34;19.90;99.90
7796;DHT22;3942;51.518;6.912;2022-07-21T22:08:37;19.50;99.90
7796;DHT22;3942;51.518;6.912;2022-07-21T22:13:39;19.40;99.90
7796;DHT22;3942;51.518;6.912;2022-07-21T22:18:41;19.30;99.90
7796;DHT22;3942;51.518;6.912;2022-07-21T22:23:44;19.40;99.90
7796;DHT22;3942;51.518;6.912;2022-07-21T22:28:46;19.20;99.90
7796;DHT22;3942;51.518;6.912;2022-07-21T22:33:48;19.30;99.90
7796;DHT22;3942;51.518;6.912;2022-07-21T22:43:53;19.40;99.90
7796;DHT22;3942;51.518;6.912;2022-07-21T22:48:55;19.20;99.90
7796;DHT22;3942;51.518;6.912;2022-07-21T22:59:00;19.20;99.90
7796;DHT22;3942;51.518;6.912;2022-07-21T23:04:03;19.30;99.90
7796;DHT22;3942;51.518;6.912;2022-07-21T23:09:07;19.20;99.90
7796;DHT22;3942;51.518;6.912;2022-07-21T23:14:08;19.30;99.90
7796;DHT22;3942;51.518;6.912;2022-07-21T23:19:10;18.60;99.90
7796;DHT22;3942;51.518;6.912;2022-07-21T23:24:14;19.10;99.90
7796;DHT22;3942;51.518;6.912;2022-07-21T23:29:15;18.90;99.90
7796;DHT22;3942;51.518;6.912;2022-07-21T23:34:18;19.50;99.90
7796;DHT22;3942;51.518;6.912;2022-07-21T23:39:21;19.00;99.90
7796;DHT22;3942;51.518;6.912;2022-07-21T23:44:23;19.10;99.90
7796;DHT22;3942;51.518;6.912;2022-07-21T23:54:28;19.10;99.90
